createdAt,value
2018-11-21T00:00:26.267Z,75.93
2018-11-21T00:02:56.352Z,76.40
2018-11-21T00:05:26.723Z,56.47
2018-11-21T00:07:56.873Z,50.73
2018-11-21T00:10:27.482Z,62.37
2018-11-21T00:12:58.264Z,83.50
2018-11-21T00:15:28.470Z,108.10
2018-11-21T00:17:58.680Z,112.83
2018-11-21T00:20:28.930Z,104.90
2018-11-21T00:22:59.042Z,94.77
2018-11-21T00:25:29.167Z,86.80
2018-11-21T00:27:59.184Z,92.70
2018-11-21T00:30:29.203Z,80.90
2018-11-21T00:32:59.386Z,77.67
2018-11-21T00:35:29.486Z,61.17
2018-11-21T00:37:59.718Z,53.10
2018-11-21T00:40:29.870Z,49.50
2018-11-21T00:42:59.897Z,46.53
2018-11-21T00:45:30.248Z,43.67
2018-11-21T00:48:00.169Z,43.50
2018-11-21T00:50:30.388Z,41.50
2018-11-21T00:53:00.365Z,42.70
2018-11-21T00:55:30.777Z,47.57
2018-11-21T00:58:00.933Z,47.87
2018-11-21T01:00:30.981Z,43.77
2018-11-21T01:03:01.242Z,40.27
2018-11-21T01:05:31.299Z,39.73
2018-11-21T01:08:01.531Z,38.20
2018-11-21T01:10:31.664Z,38.37
2018-11-21T01:13:01.791Z,37.53
2018-11-21T01:15:32.036Z,37.13
2018-11-21T01:18:02.077Z,37.77
2018-11-21T01:20:32.373Z,41.10
2018-11-21T01:23:02.577Z,42.43
2018-11-21T01:25:32.683Z,39.00
2018-11-21T01:28:02.652Z,37.10
2018-11-21T01:30:32.656Z,34.47
2018-11-21T01:33:09.382Z,34.83
2018-11-21T01:35:32.971Z,35.00
2018-11-21T01:38:03.289Z,35.13
2018-11-21T01:40:33.607Z,34.57
2018-11-21T01:43:03.605Z,36.70
2018-11-21T01:45:33.872Z,35.10
2018-11-21T01:48:04.130Z,45.33
2018-11-21T01:50:34.479Z,38.67
2018-11-21T01:53:04.746Z,37.23
2018-11-21T01:55:35.010Z,38.87
2018-11-21T01:58:04.948Z,40.50
2018-11-21T02:00:35.156Z,40.37
2018-11-21T02:03:05.301Z,42.27
2018-11-21T02:05:35.505Z,41.77
2018-11-21T02:08:05.716Z,40.57
2018-11-21T02:10:35.860Z,41.70
2018-11-21T02:13:06.036Z,40.90
2018-11-21T02:15:36.217Z,42.43
2018-11-21T02:18:06.534Z,39.77
2018-11-21T02:20:36.713Z,40.63
2018-11-21T02:23:06.973Z,48.43
2018-11-21T02:25:37.118Z,36.97
2018-11-21T02:28:07.430Z,35.93
2018-11-21T02:30:37.852Z,35.60
2018-11-21T02:33:08.031Z,36.87
2018-11-21T02:35:38.252Z,35.33
2018-11-21T02:38:08.194Z,34.67
2018-11-21T02:40:38.294Z,35.70
2018-11-21T02:43:08.345Z,36.70
2018-11-21T02:45:38.975Z,41.63
2018-11-21T02:48:08.987Z,41.67
2018-11-21T02:50:39.009Z,42.97
2018-11-21T02:53:09.296Z,38.07
2018-11-21T02:55:39.636Z,34.73
2018-11-21T02:58:09.839Z,35.10
2018-11-21T03:00:40.105Z,34.50
2018-11-21T03:03:10.595Z,34.40
2018-11-21T03:05:40.757Z,33.93
2018-11-21T03:08:10.935Z,34.53
2018-11-21T03:10:41.488Z,33.73
2018-11-21T03:13:11.866Z,33.33
2018-11-21T03:15:41.900Z,34.97
2018-11-21T03:18:12.020Z,35.13
2018-11-21T03:20:42.123Z,34.73
2018-11-21T03:23:12.468Z,32.93
2018-11-21T03:25:42.610Z,34.67
2018-11-21T03:28:12.734Z,34.47
2018-11-21T03:30:42.978Z,35.43
2018-11-21T03:33:13.403Z,35.37
2018-11-21T03:35:43.829Z,37.40
2018-11-21T03:38:14.108Z,37.50
2018-11-21T03:40:44.323Z,39.50
2018-11-21T03:43:14.383Z,41.03
2018-11-21T03:45:44.578Z,37.90
2018-11-21T03:48:14.881Z,38.50
2018-11-21T03:50:45.028Z,36.13
2018-11-21T03:53:15.095Z,36.73
2018-11-21T03:55:45.654Z,35.40
2018-11-21T03:58:15.859Z,37.00
2018-11-21T04:00:45.963Z,36.47
2018-11-21T04:03:16.080Z,36.33
2018-11-21T04:05:46.450Z,35.23
2018-11-21T04:08:16.475Z,33.43
2018-11-21T04:10:46.906Z,30.90
2018-11-21T04:13:17.128Z,30.50
2018-11-21T04:15:47.514Z,30.47
2018-11-21T04:18:17.642Z,31.67
2018-11-21T04:20:48.001Z,33.43
2018-11-21T04:23:18.592Z,33.43
2018-11-21T04:25:48.862Z,35.57
2018-11-21T04:28:19.445Z,34.80
2018-11-21T04:30:49.471Z,33.37
2018-11-21T04:33:19.977Z,30.83
2018-11-21T04:35:50.511Z,30.40
2018-11-21T04:38:20.834Z,31.57
2018-11-21T04:40:51.583Z,27.80
2018-11-21T04:43:21.791Z,27.80
2018-11-21T04:45:52.328Z,28.10
2018-11-21T04:48:22.577Z,28.43
2018-11-21T04:50:52.771Z,27.90
2018-11-21T04:53:23.071Z,28.70
2018-11-21T04:55:53.250Z,29.83
2018-11-21T04:58:23.610Z,30.30
2018-11-21T05:00:53.693Z,29.20
2018-11-21T05:03:23.991Z,27.03
2018-11-21T05:05:54.297Z,26.77
2018-11-21T05:08:24.297Z,29.03
2018-11-21T05:10:54.451Z,31.82
2018-11-21T05:13:24.522Z,28.03
2018-11-21T05:15:54.689Z,26.80
2018-11-21T05:18:24.742Z,32.20
2018-11-21T05:20:54.893Z,28.40
2018-11-21T05:23:25.308Z,29.67
2018-11-21T05:25:55.486Z,30.07
2018-11-21T05:28:25.680Z,28.77
2018-11-21T05:30:55.821Z,30.27
2018-11-21T05:33:27.413Z,30.87
2018-11-21T05:35:57.840Z,29.60
2018-11-21T05:38:27.778Z,28.83
2018-11-21T05:40:57.884Z,27.80
2018-11-21T05:43:27.949Z,28.30
2018-11-21T05:45:58.166Z,27.70
2018-11-21T05:48:28.559Z,29.93
2018-11-21T05:50:58.881Z,29.83
2018-11-21T05:53:29.528Z,31.67
2018-11-21T05:55:59.723Z,30.47
2018-11-21T05:58:30.210Z,32.03
2018-11-21T06:01:00.371Z,30.83
2018-11-21T06:03:30.840Z,32.37
2018-11-21T06:06:01.281Z,44.57
2018-11-21T06:08:31.306Z,48.83
2018-11-21T06:11:01.543Z,45.13
2018-11-21T06:13:31.734Z,38.53
2018-11-21T06:16:02.060Z,29.00
2018-11-21T06:18:32.031Z,31.63
2018-11-21T06:21:02.456Z,36.23
2018-11-21T06:23:32.602Z,56.83
2018-11-21T06:26:02.773Z,47.73
2018-11-21T06:28:33.423Z,46.03
2018-11-21T06:31:03.790Z,38.47
2018-11-21T06:33:33.915Z,33.30
2018-11-21T06:36:04.219Z,35.20
2018-11-21T06:38:34.302Z,31.63
2018-11-21T06:41:04.635Z,38.87
2018-11-21T06:43:34.809Z,51.60
2018-11-21T06:46:05.068Z,39.83
2018-11-21T06:48:36.438Z,41.93
2018-11-21T06:51:07.531Z,47.53
2018-11-21T06:53:38.826Z,59.03
2018-11-21T06:56:09.387Z,70.13
2018-11-21T06:58:40.706Z,61.33
2018-11-21T07:01:12.087Z,45.83
2018-11-21T07:03:44.929Z,47.27
2018-11-21T07:06:15.675Z,43.98
2018-11-21T07:08:46.523Z,36.27
2018-11-21T07:11:19.222Z,39.07
2018-11-21T07:13:50.544Z,49.33
2018-11-21T07:16:20.943Z,42.30
2018-11-21T07:18:51.180Z,46.57
2018-11-21T07:21:21.704Z,41.28
2018-11-21T07:23:54.085Z,42.87
2018-11-21T07:26:26.147Z,28.93
2018-11-21T07:28:57.975Z,23.80
2018-11-21T07:31:30.496Z,48.68
2018-11-21T07:34:01.983Z,30.43
2018-11-21T07:36:34.204Z,38.93
2018-11-21T07:39:06.048Z,27.57
2018-11-21T07:41:39.223Z,22.17
2018-11-21T07:44:11.211Z,21.83
2018-11-21T07:46:42.597Z,22.90
2018-11-21T07:49:13.569Z,22.57
2018-11-21T07:51:44.270Z,25.03
2018-11-21T07:54:15.118Z,21.83
2018-11-21T07:57:13.339Z,23.20
2018-11-21T08:00:20.637Z,22.33
2018-11-21T08:02:50.872Z,21.03
2018-11-21T08:05:25.283Z,22.90
2018-11-21T08:08:01.928Z,21.93
2018-11-21T08:11:01.755Z,29.73
2018-11-21T08:13:53.796Z,22.17
2018-11-21T08:16:42.812Z,24.65
2018-11-21T08:19:34.545Z,23.50
2018-11-21T08:22:20.036Z,22.53
2018-11-21T08:25:13.701Z,22.83
2018-11-21T08:28:05.820Z,22.87
2018-11-21T08:30:36.466Z,21.13
2018-11-21T08:33:06.465Z,24.55
2018-11-21T08:35:36.759Z,22.30
2018-11-21T08:38:07.049Z,21.70
2018-11-21T08:40:37.323Z,21.50
2018-11-21T08:43:08.165Z,22.30
2018-11-21T08:45:38.356Z,21.87
2018-11-21T08:48:08.952Z,22.03
2018-11-21T08:50:39.452Z,21.87
2018-11-21T08:53:09.517Z,22.40
2018-11-21T08:55:39.760Z,31.43
2018-11-21T08:58:10.809Z,31.17
2018-11-21T09:00:42.344Z,30.13
2018-11-21T09:03:12.503Z,27.60
2018-11-21T09:05:43.680Z,26.17
2018-11-21T09:08:13.841Z,26.87
2018-11-21T09:10:44.088Z,25.97
2018-11-21T09:13:14.659Z,26.90
2018-11-21T09:15:44.924Z,25.63
2018-11-21T09:18:15.081Z,25.47
2018-11-21T09:20:45.454Z,24.37
2018-11-21T09:23:15.411Z,26.07
2018-11-21T09:25:45.843Z,24.70
2018-11-21T09:28:16.039Z,25.07
2018-11-21T09:30:46.126Z,22.83
2018-11-21T09:33:16.230Z,23.70
2018-11-21T09:35:46.770Z,23.87
2018-11-21T09:38:16.874Z,23.07
2018-11-21T09:40:46.957Z,22.97
2018-11-21T09:43:17.068Z,22.30
2018-11-21T09:45:47.322Z,21.93
2018-11-21T09:48:17.425Z,23.13
2018-11-21T09:50:47.514Z,21.77
2018-11-21T09:53:17.780Z,21.77
2018-11-21T09:55:48.333Z,20.37
2018-11-21T09:58:19.003Z,21.80
2018-11-21T10:01:25.572Z,20.60
2018-11-21T10:03:58.857Z,20.03
2018-11-21T10:06:27.899Z,22.70
2018-11-21T10:08:59.819Z,19.73
2018-11-21T10:11:30.752Z,18.03
2018-11-21T10:14:00.823Z,19.67
2018-11-21T10:16:30.909Z,20.57
2018-11-21T10:19:01.418Z,20.80
2018-11-21T10:21:33.481Z,19.93
2018-11-21T10:24:03.794Z,19.60
2018-11-21T10:26:33.808Z,18.17
2018-11-21T10:29:03.855Z,18.63
2018-11-21T10:31:33.978Z,18.63
2018-11-21T10:34:04.064Z,19.47
2018-11-21T10:36:34.103Z,20.27
2018-11-21T10:39:05.718Z,19.33
2018-11-21T10:41:35.830Z,19.43
2018-11-21T10:44:06.076Z,19.03
2018-11-21T10:46:36.362Z,19.37
2018-11-21T10:49:07.096Z,22.87
2018-11-21T10:51:37.506Z,20.07
2018-11-21T10:54:07.779Z,20.70
2018-11-21T10:56:37.865Z,20.63
2018-11-21T10:59:08.117Z,20.83
2018-11-21T11:01:55.676Z,20.73
2018-11-21T11:07:33.800Z,21.73
2018-11-21T11:10:28.387Z,19.07
2018-11-21T11:13:24.173Z,18.43
2018-11-21T11:16:12.078Z,18.80
2018-11-21T11:19:10.070Z,19.03
2018-11-21T11:21:58.005Z,18.70
2018-11-21T11:25:02.194Z,19.43
2018-11-21T11:28:10.306Z,19.20
2018-11-21T11:31:17.018Z,18.33
2018-11-21T11:33:58.265Z,21.03
2018-11-21T11:36:36.902Z,19.40
2018-11-21T11:39:23.658Z,19.30
2018-11-21T11:42:15.976Z,19.90
2018-11-21T11:45:04.187Z,18.53
2018-11-21T11:47:52.200Z,20.63
2018-11-21T11:50:39.800Z,18.27
2018-11-21T11:53:31.476Z,19.43
2018-11-21T11:56:23.460Z,16.63
2018-11-21T11:59:27.349Z,19.10
2018-11-21T12:02:31.193Z,18.37
2018-11-21T12:05:22.984Z,31.77
2018-11-21T12:08:17.674Z,37.50
2018-11-21T12:11:06.826Z,32.50
2018-11-21T12:13:54.523Z,35.13
2018-11-21T12:16:42.517Z,34.87
2018-11-21T12:19:31.659Z,36.17
2018-11-21T12:22:29.784Z,31.97
2018-11-21T12:25:21.693Z,31.57
2018-11-21T12:28:19.925Z,32.37
2018-11-21T12:31:09.292Z,31.43
2018-11-21T12:33:56.995Z,30.70
2018-11-21T12:36:46.104Z,33.07
2018-11-21T12:39:47.274Z,32.87
2018-11-21T12:42:42.664Z,30.17
2018-11-21T12:45:30.958Z,34.30
2018-11-21T12:48:28.993Z,34.33
2018-11-21T12:51:18.117Z,33.37
2018-11-21T12:54:10.065Z,30.50
2018-11-21T12:56:54.797Z,24.60
2018-11-21T12:59:56.342Z,25.40
2018-11-21T13:02:38.242Z,26.17
2018-11-21T13:05:39.839Z,32.97
2018-11-21T13:08:44.107Z,32.80
2018-11-21T13:11:31.902Z,34.63
2018-11-21T13:14:19.635Z,28.63
2018-11-21T13:17:00.949Z,27.47
2018-11-21T13:19:49.999Z,27.40
2018-11-21T13:22:56.959Z,27.47
2018-11-21T13:25:44.862Z,25.73
2018-11-21T13:28:45.978Z,26.67
2018-11-21T13:31:44.149Z,27.97
2018-11-21T13:34:31.497Z,27.70
2018-11-21T13:37:09.268Z,28.87
2018-11-21T13:39:58.498Z,29.43
2018-11-21T13:42:56.576Z,30.17
2018-11-21T13:45:48.528Z,36.10
2018-11-21T13:48:35.994Z,34.73
2018-11-21T13:51:37.166Z,31.90
2018-11-21T13:54:41.884Z,31.33
2018-11-21T13:57:12.140Z,37.93
2018-11-21T13:59:42.170Z,38.60
2018-11-21T14:02:12.289Z,38.90
2018-11-21T14:04:42.300Z,37.93
2018-11-21T14:07:13.016Z,39.33
2018-11-21T14:09:43.177Z,37.50
2018-11-21T14:12:13.317Z,38.23
2018-11-21T14:14:43.299Z,38.97
2018-11-21T14:17:13.522Z,39.85
2018-11-21T14:19:43.528Z,41.20
2018-11-21T14:22:14.092Z,46.43
2018-11-21T14:25:03.335Z,40.87
2018-11-21T14:27:33.603Z,41.80
2018-11-21T14:30:03.513Z,39.70
2018-11-21T14:32:33.913Z,42.87
2018-11-21T14:35:03.933Z,40.67
2018-11-21T14:37:34.130Z,41.97
2018-11-21T14:40:04.270Z,40.50
2018-11-21T14:42:34.259Z,42.50
2018-11-21T14:45:04.527Z,44.97
2018-11-21T14:47:34.940Z,41.07
2018-11-21T14:50:10.643Z,45.90
2018-11-21T14:52:49.783Z,41.77
2018-11-21T14:55:20.538Z,39.57
2018-11-21T14:57:51.275Z,39.30
2018-11-21T15:00:22.050Z,42.77
2018-11-21T15:02:52.294Z,38.37
2018-11-21T15:05:22.256Z,36.30
2018-11-21T15:07:52.582Z,39.93
2018-11-21T15:10:22.673Z,40.13
2018-11-21T15:12:53.037Z,47.33
2018-11-21T15:15:24.654Z,46.10
2018-11-21T15:17:54.771Z,46.77
2018-11-21T15:20:25.726Z,55.47
2018-11-21T15:22:56.344Z,65.50
2018-11-21T15:25:26.317Z,72.23
2018-11-21T15:27:56.506Z,93.33
2018-11-21T15:30:28.722Z,88.00
2018-11-21T15:32:59.096Z,88.13
2018-11-21T15:35:30.663Z,85.93
2018-11-21T15:38:00.875Z,78.80
2018-11-21T15:40:31.107Z,76.83
2018-11-21T15:43:01.322Z,77.87
2018-11-21T15:45:31.659Z,81.17
2018-11-21T15:48:02.702Z,84.33
2018-11-21T15:50:33.517Z,78.03
2018-11-21T15:53:04.315Z,69.93
2018-11-21T15:55:34.803Z,68.30
2018-11-21T15:58:05.166Z,61.07
2018-11-21T16:00:36.440Z,56.63
2018-11-21T16:03:08.017Z,54.33
2018-11-21T16:05:38.773Z,51.40
2018-11-21T16:08:10.409Z,42.13
2018-11-21T16:10:42.405Z,44.37
2018-11-21T16:13:12.602Z,38.47
2018-11-21T16:15:47.522Z,41.63
2018-11-21T16:18:18.510Z,35.43
2018-11-21T16:20:48.890Z,35.93
2018-11-21T16:23:19.056Z,36.40
2018-11-21T16:25:49.204Z,41.70
2018-11-21T16:28:19.574Z,55.77
2018-11-21T16:30:49.920Z,72.00
2018-11-21T16:33:20.028Z,74.37
2018-11-21T16:35:50.143Z,89.80
2018-11-21T16:38:20.370Z,83.43
2018-11-21T16:40:50.527Z,87.03
2018-11-21T16:43:20.713Z,94.33
2018-11-21T16:45:52.894Z,89.80
2018-11-21T16:48:22.946Z,109.43
2018-11-21T16:50:53.252Z,86.27
2018-11-21T16:53:23.459Z,75.83
2018-11-21T16:55:53.631Z,67.53
2018-11-21T16:58:23.839Z,60.83
2018-11-21T17:00:54.092Z,59.93
2018-11-21T17:03:24.160Z,58.73
2018-11-21T17:05:54.350Z,59.63
2018-11-21T17:08:24.352Z,47.90
2018-11-21T17:10:54.774Z,38.30
2018-11-21T17:13:24.727Z,31.20
2018-11-21T17:15:55.416Z,29.60
2018-11-21T17:18:25.893Z,30.50
2018-11-21T17:20:56.200Z,37.10
2018-11-21T17:23:26.029Z,74.17
2018-11-21T17:25:56.171Z,164.60
2018-11-21T17:28:26.437Z,207.33
2018-11-21T17:30:56.622Z,210.77
2018-11-21T17:33:27.150Z,194.37
2018-11-21T17:35:57.264Z,196.17
2018-11-21T17:38:33.416Z,274.10
